Impacts TAF Board
For situational awareness. Not to be used for flight planning purposes.
IDs:

KLAX - Los Angeles Intl, CA, US

Issued at 1500 UTC 01 Mar 2021
Updated at 1651 UTC 01 Mar 2021
Potential Impact None Slight Moderate High
Time1553Z 01/17Z 01/18Z 01/19Z 01/20Z 01/21Z 01/22Z 01/23Z 02/00Z 02/01Z 02/02Z 02/03Z 02/04Z 02/05Z>>
Type OBS PRVL PRVL PRVL PRVL PRVL PRVL PRVL PRVL PRVL PRVL PRVL PRVL PRVL
VIS 10 >6 >6 >6 >6 >6 >6 >6 >6 >6 >6 >6 >6 >6
CIG -- -- -- -- -- -- -- -- -- -- -- -- -- --
Cover CLR SKC SKC SKC SKC SCT SCT SCT SCT SCT SCT SCT SCT SCT
FltCat VFR VFR VFR VFR VFR VFR VFR VFR VFR VFR VFR VFR VFR VFR
WX -- -- -- -- -- -- -- -- -- -- -- -- -- --
WDir 40 40 40 40 40 250 250 250 250 250 270 270 270 VRB
WSpd 9 8 8 8 8 10 10 10 10 10 5 5 5 3
WGst -- -- -- -- -- -- -- -- -- -- -- -- -- --
Raw TAF
KLAX 011500Z 0115/0218 04008KT P6SM SKC
  FM012100 25010KT P6SM SCT250
  FM020200 27005KT P6SM SCT250
  FM020500 VRB03KT P6SM SCT250
  FM021200 05004KT P6SM SCT250


Raw METAR
KLAX 011553Z 04009KT 10SM CLR 13/M11 A3020 RMK AO2 SLP227 T01331111
KLAX 011453Z 04008KT 350V060 10SM CLR 12/M12 A3020 RMK AO2 SLP225 T01171122 50001
KLAX 011353Z 01006KT 10SM CLR 12/M13 A3020 RMK AO2 SLP226 T01171128

METAR Board
Radar Display
Forecast Discussion
For situational awareness. Not to be used for flight planning purposes.